Time;durP1;ratioP1;P1;durP2;ratioP2;P2;SDS_P1;SDS_P2;PMS_P1;PMS_P2;Temp;Humidity;BMP_temperature;BMP_pressure;BME280_temperature;BME280_humidity;BME280_pressure;Samples;Min_cycle;Max_cycle;Signal;HPM_P1;HPM_P2
2024/01/02 00:00:18;;;;;;;1.40;0.60;;;;;;;;;;5040829;28;20636;-74
2024/01/02 00:02:44;;;;;;;2.92;0.77;;;;;;;;;;5040801;28;20063;-74
2024/01/02 00:05:09;;;;;;;0.32;0.30;;;;;;;;;;5041097;28;20112;-75
2024/01/02 00:07:35;;;;;;;0.32;0.32;;;;;;;;;;5040682;28;20454;-75
2024/01/02 00:10:00;;;;;;;0.38;0.35;;;;;;;;;;5042058;28;20316;-75
2024/01/02 00:12:25;;;;;;;1.75;0.30;;;;;;;;;;5042122;28;20486;-75
2024/01/02 00:14:54;;;;;;;0.88;0.65;;;;;;;;;;5042410;28;20544;-75
2024/01/02 00:17:19;;;;;;;0.50;0.50;;;;;;;;;;5041174;28;20475;-75
2024/01/02 00:19:44;;;;;;;2.05;0.60;;;;;;;;;;5040618;28;20768;-74
2024/01/02 00:22:10;;;;;;;1.35;0.30;;;;;;;;;;5042050;28;20025;-74
2024/01/02 00:24:35;;;;;;;0.60;0.40;;;;;;;;;;5040851;28;20024;-75
2024/01/02 00:27:02;;;;;;;0.60;0.28;;;;;;;;;;5043049;28;20044;-75
2024/01/02 00:29:27;;;;;;;0.30;0.30;;;;;;;;;;5040139;28;20041;-74
2024/01/02 00:31:53;;;;;;;0.40;0.40;;;;;;;;;;5041915;28;20047;-74
2024/01/02 00:34:18;;;;;;;0.43;0.30;;;;;;;;;;5038753;28;20041;-76
2024/01/02 00:36:43;;;;;;;0.77;0.47;;;;;;;;;;5040648;28;20036;-76
2024/01/02 00:39:09;;;;;;;0.68;0.40;;;;;;;;;;5041648;28;20136;-76
2024/01/02 00:41:34;;;;;;;0.35;0.30;;;;;;;;;;5041837;28;20067;-76
2024/01/02 00:44:00;;;;;;;0.90;0.50;;;;;;;;;;5045071;28;20061;-76
2024/01/02 00:46:25;;;;;;;1.95;0.40;;;;;;;;;;5054365;28;20406;-76
2024/01/02 00:48:50;;;;;;;0.40;0.40;;;;;;;;;;5051559;28;20394;-76
2024/01/02 00:51:16;;;;;;;0.43;0.40;;;;;;;;;;5048860;28;20131;-75
2024/01/02 00:53:41;;;;;;;0.30;0.30;;;;;;;;;;5044602;28;20556;-76
2024/01/02 00:56:07;;;;;;;0.30;0.30;;;;;;;;;;5041723;28;20120;-76
2024/01/02 00:58:32;;;;;;;0.80;0.50;;;;;;;;;;5040766;28;20044;-76
2024/01/02 01:00:58;;;;;;;0.20;0.20;;;;;;;;;;5041826;28;20032;-76
2024/01/02 01:03:23;;;;;;;1.60;0.57;;;;;;;;;;5041883;28;20132;-76
2024/01/02 01:05:48;;;;;;;0.30;0.30;;;;;;;;;;5041169;28;20056;-76
2024/01/02 01:08:14;;;;;;;0.40;0.32;;;;;;;;;;5042048;28;20052;-76
2024/01/02 01:10:39;;;;;;;0.30;0.30;;;;;;;;;;5044402;28;20782;-76
2024/01/02 01:13:04;;;;;;;0.25;0.25;;;;;;;;;;5045315;28;20104;-76
2024/01/02 01:15:30;;;;;;;0.30;0.30;;;;;;;;;;5042271;28;20104;-76
2024/01/02 01:17:55;;;;;;;0.43;0.40;;;;;;;;;;5044743;28;20028;-76
2024/01/02 01:20:21;;;;;;;4.88;0.40;;;;;;;;;;5045181;28;20469;-76
2024/01/02 01:22:46;;;;;;;0.77;0.25;;;;;;;;;;5045619;28;20037;-76
2024/01/02 01:25:11;;;;;;;0.40;0.40;;;;;;;;;;5045422;28;20115;-76
2024/01/02 01:27:37;;;;;;;4.88;0.50;;;;;;;;;;5043255;28;20057;-76
2024/01/02 01:30:03;;;;;;;5.30;0.60;;;;;;;;;;5044526;28;20040;-76
2024/01/02 01:32:29;;;;;;;1.10;0.40;;;;;;;;;;5045191;28;20711;-76
2024/01/02 01:34:54;;;;;;;1.13;0.45;;;;;;;;;;5045375;28;20055;-76
2024/01/02 01:37:20;;;;;;;0.40;0.40;;;;;;;;;;5042953;28;20057;-76
2024/01/02 01:39:45;;;;;;;0.47;0.40;;;;;;;;;;5045629;28;20036;-76
2024/01/02 01:42:10;;;;;;;0.40;0.40;;;;;;;;;;5043175;28;20115;-76
2024/01/02 01:44:36;;;;;;;0.90;0.40;;;;;;;;;;5045534;28;20041;-76
2024/01/02 01:47:04;;;;;;;0.57;0.50;;;;;;;;;;5044499;28;20068;-76
2024/01/02 01:49:30;;;;;;;0.43;0.43;;;;;;;;;;5043213;28;20171;-76
2024/01/02 01:51:57;;;;;;;0.57;0.50;;;;;;;;;;5045149;28;20111;-76
2024/01/02 01:54:23;;;;;;;0.50;0.50;;;;;;;;;;5045185;28;20059;-76
2024/01/02 01:56:50;;;;;;;0.32;0.32;;;;;;;;;;5045135;28;20324;-77
2024/01/02 01:59:15;;;;;;;0.90;0.50;;;;;;;;;;5045223;28;20037;-76
2024/01/02 02:01:43;;;;;;;0.45;0.40;;;;;;;;;;5044786;28;20068;-77
2024/01/02 02:04:09;;;;;;;2.95;0.50;;;;;;;;;;5050259;28;20025;-76
2024/01/02 02:06:34;;;;;;;0.40;0.40;;;;;;;;;;5054561;28;20025;-76
2024/01/02 02:08:59;;;;;;;1.52;0.50;;;;;;;;;;5046022;28;20040;-77
2024/01/02 02:11:26;;;;;;;0.38;0.35;;;;;;;;;;5044588;28;20613;-76
2024/01/02 02:13:51;;;;;;;0.63;0.47;;;;;;;;;;5044422;28;20033;-76
2024/01/02 02:16:17;;;;;;;0.47;0.40;;;;;;;;;;5042596;28;20048;-77
2024/01/02 02:18:42;;;;;;;0.50;0.50;;;;;;;;;;5044469;28;20033;-77
2024/01/02 02:21:08;;;;;;;1.52;0.50;;;;;;;;;;5042856;28;20021;-75
2024/01/02 02:23:33;;;;;;;1.05;0.57;;;;;;;;;;5044279;28;20039;-75
2024/01/02 02:25:59;;;;;;;0.55;0.52;;;;;;;;;;5041997;28;20033;-75
2024/01/02 02:28:24;;;;;;;0.70;0.60;;;;;;;;;;5044019;28;20040;-76
2024/01/02 02:30:50;;;;;;;0.28;0.28;;;;;;;;;;5041676;28;20040;-76
2024/01/02 02:33:15;;;;;;;0.95;0.90;;;;;;;;;;5041911;28;20032;-76
2024/01/02 02:35:41;;;;;;;0.40;0.40;;;;;;;;;;5044094;28;20067;-76
2024/01/02 02:38:06;;;;;;;2.67;0.70;;;;;;;;;;5054566;28;20051;-76
2024/01/02 02:40:32;;;;;;;0.47;0.47;;;;;;;;;;5063943;28;20413;-77
2024/01/02 02:42:57;;;;;;;1.63;0.68;;;;;;;;;;5045739;28;20040;-78
2024/01/02 02:45:22;;;;;;;0.40;0.40;;;;;;;;;;5063979;28;20123;-76
2024/01/02 02:47:48;;;;;;;1.85;0.60;;;;;;;;;;5045725;28;20041;-76
2024/01/02 02:50:13;;;;;;;0.60;0.60;;;;;;;;;;5064006;28;20111;-76
2024/01/02 02:52:39;;;;;;;0.57;0.57;;;;;;;;;;5063660;28;20063;-76
2024/01/02 02:55:05;;;;;;;0.40;0.40;;;;;;;;;;5045590;28;20421;-76
2024/01/02 02:57:30;;;;;;;0.55;0.55;;;;;;;;;;5045526;28;20127;-76
2024/01/02 02:59:55;;;;;;;0.90;0.70;;;;;;;;;;5045638;28;20108;-76
2024/01/02 03:02:21;;;;;;;3.92;0.70;;;;;;;;;;5063233;28;20036;-75
2024/01/02 03:04:46;;;;;;;0.77;0.60;;;;;;;;;;5063185;28;20644;-76
2024/01/02 03:07:11;;;;;;;0.95;0.60;;;;;;;;;;5045781;28;20104;-77
2024/01/02 03:09:38;;;;;;;0.77;0.50;;;;;;;;;;5045578;28;20055;-76
2024/01/02 03:12:04;;;;;;;1.35;0.70;;;;;;;;;;5046147;28;20025;-77
2024/01/02 03:14:29;;;;;;;3.65;0.80;;;;;;;;;;5045235;28;20029;-76
2024/01/02 03:16:55;;;;;;;0.60;0.60;;;;;;;;;;5063677;28;20055;-77
2024/01/02 03:19:20;;;;;;;1.05;0.60;;;;;;;;;;5064891;28;20040;-77
2024/01/02 03:21:46;;;;;;;0.50;0.50;;;;;;;;;;5066299;28;20036;-77
2024/01/02 03:24:11;;;;;;;0.70;0.70;;;;;;;;;;5055557;28;20028;-77
2024/01/02 03:26:36;;;;;;;2.15;0.80;;;;;;;;;;5056550;28;20032;-76
2024/01/02 03:29:02;;;;;;;2.25;0.70;;;;;;;;;;5069477;28;20521;-76
2024/01/02 03:31:27;;;;;;;1.10;0.80;;;;;;;;;;5047800;28;20886;-77
2024/01/02 03:33:53;;;;;;;0.82;0.75;;;;;;;;;;5045745;28;20064;-76
2024/01/02 03:36:21;;;;;;;1.42;0.90;;;;;;;;;;5064313;28;20108;-77
2024/01/02 03:38:51;;;;;;;1.17;0.95;;;;;;;;;;5062685;28;20532;-77
2024/01/02 03:41:18;;;;;;;0.73;0.65;;;;;;;;;;5063276;28;20032;-77
2024/01/02 03:43:43;;;;;;;0.80;0.65;;;;;;;;;;5044705;28;20041;-77
2024/01/02 03:46:09;;;;;;;0.95;0.70;;;;;;;;;;5044792;28;20516;-77
2024/01/02 03:48:34;;;;;;;0.60;0.60;;;;;;;;;;5062850;28;20047;-76
2024/01/02 03:51:03;;;;;;;4.07;0.80;;;;;;;;;;5063187;28;20048;-76
2024/01/02 03:53:28;;;;;;;1.25;0.57;;;;;;;;;;5044072;28;20073;-77
2024/01/02 03:55:57;;;;;;;1.88;1.00;;;;;;;;;;5061981;28;20033;-77
2024/01/02 03:58:24;;;;;;;2.53;0.80;;;;;;;;;;5044135;28;20553;-77
2024/01/02 04:00:53;;;;;;;1.15;0.77;;;;;;;;;;5044711;28;20034;-76
2024/01/02 04:03:19;;;;;;;0.85;0.70;;;;;;;;;;5062973;28;20055;-77
2024/01/02 04:05:44;;;;;;;0.80;0.60;;;;;;;;;;5044141;28;20409;-77
2024/01/02 04:08:10;;;;;;;1.67;0.80;;;;;;;;;;5062052;28;20056;-77
2024/01/02 04:10:38;;;;;;;0.43;0.43;;;;;;;;;;5043674;28;20772;-77
2024/01/02 04:13:03;;;;;;;0.57;0.50;;;;;;;;;;5062143;28;20035;-77
2024/01/02 04:15:29;;;;;;;1.20;0.77;;;;;;;;;;5062102;28;20033;-76
2024/01/02 04:17:54;;;;;;;0.60;0.60;;;;;;;;;;5062499;28;20031;-77
2024/01/02 04:20:20;;;;;;;1.67;0.70;;;;;;;;;;5062577;28;20489;-77
2024/01/02 04:22:45;;;;;;;0.63;0.55;;;;;;;;;;5060412;28;20047;-78
2024/01/02 04:25:10;;;;;;;1.08;0.70;;;;;;;;;;5044360;28;20771;-76
2024/01/02 04:27:36;;;;;;;0.90;0.70;;;;;;;;;;5043664;28;20078;-77
2024/01/02 04:30:01;;;;;;;0.60;0.60;;;;;;;;;;5061711;28;20027;-78
2024/01/02 04:32:27;;;;;;;1.00;0.63;;;;;;;;;;5062461;28;20567;-77
2024/01/02 04:34:52;;;;;;;0.70;0.45;;;;;;;;;;5044273;28;20952;-77
2024/01/02 04:37:17;;;;;;;2.55;0.90;;;;;;;;;;5061721;28;20069;-77
2024/01/02 04:39:43;;;;;;;0.90;0.60;;;;;;;;;;5063445;28;20033;-77
2024/01/02 04:42:08;;;;;;;1.20;0.70;;;;;;;;;;5051076;28;20032;-76
2024/01/02 04:44:35;;;;;;;1.13;0.73;;;;;;;;;;5059169;28;20028;-76
2024/01/02 04:47:01;;;;;;;1.02;0.90;;;;;;;;;;5068939;28;20587;-76
2024/01/02 04:49:26;;;;;;;2.25;0.55;;;;;;;;;;5047681;28;20036;-76
2024/01/02 04:51:51;;;;;;;0.60;0.50;;;;;;;;;;5047567;28;20166;-77
2024/01/02 04:54:17;;;;;;;1.73;0.85;;;;;;;;;;5066422;28;20035;-76
2024/01/02 04:56:43;;;;;;;0.85;0.70;;;;;;;;;;5065764;28;20040;-77
2024/01/02 04:59:08;;;;;;;2.20;0.90;;;;;;;;;;5066058;28;20040;-77
2024/01/02 05:01:33;;;;;;;1.02;0.73;;;;;;;;;;5066123;28;20119;-77
2024/01/02 05:03:59;;;;;;;1.02;0.80;;;;;;;;;;5065632;28;20097;-77
2024/01/02 05:06:24;;;;;;;2.00;0.80;;;;;;;;;;5046253;28;20060;-77
2024/01/02 05:08:50;;;;;;;0.70;0.60;;;;;;;;;;5065632;28;20021;-77
2024/01/02 05:11:15;;;;;;;0.50;0.50;;;;;;;;;;5065854;28;20059;-77
2024/01/02 05:13:41;;;;;;;1.42;0.65;;;;;;;;;;5047482;28;20033;-77
2024/01/02 05:16:08;;;;;;;1.63;0.60;;;;;;;;;;5065599;28;20421;-78
2024/01/02 05:18:33;;;;;;;1.10;0.65;;;;;;;;;;5065572;28;20028;-77
2024/01/02 05:20:59;;;;;;;1.05;0.60;;;;;;;;;;5047668;28;20031;-77
2024/01/02 05:23:24;;;;;;;1.27;0.65;;;;;;;;;;5065740;28;20032;-77
2024/01/02 05:25:50;;;;;;;0.60;0.50;;;;;;;;;;5064978;28;20548;-77
2024/01/02 05:28:16;;;;;;;0.60;0.55;;;;;;;;;;5065108;28;20182;-77
2024/01/02 05:30:41;;;;;;;0.55;0.40;;;;;;;;;;5065671;28;20095;-77
2024/01/02 05:33:07;;;;;;;0.88;0.60;;;;;;;;;;5048030;28;20166;-76
2024/01/02 05:35:32;;;;;;;0.55;0.55;;;;;;;;;;5063861;28;20102;-77
2024/01/02 05:37:58;;;;;;;0.50;0.50;;;;;;;;;;5064623;28;20048;-77
2024/01/02 05:40:24;;;;;;;0.60;0.60;;;;;;;;;;5047236;28;20047;-77
2024/01/02 05:42:49;;;;;;;0.40;0.40;;;;;;;;;;5047206;28;20421;-76
2024/01/02 05:45:14;;;;;;;0.60;0.60;;;;;;;;;;5047615;28;20024;-78
2024/01/02 05:47:40;;;;;;;1.08;0.70;;;;;;;;;;5064816;28;20414;-77
2024/01/02 05:50:06;;;;;;;1.80;0.47;;;;;;;;;;5065061;28;20028;-77
2024/01/02 05:52:31;;;;;;;0.90;0.80;;;;;;;;;;5047181;28;20082;-78
2024/01/02 05:54:56;;;;;;;2.67;0.70;;;;;;;;;;5065107;28;20032;-77
2024/01/02 05:57:22;;;;;;;2.17;0.65;;;;;;;;;;5066095;28;20024;-77
2024/01/02 05:59:47;;;;;;;0.80;0.47;;;;;;;;;;5067267;28;20106;-77
2024/01/02 06:02:12;;;;;;;2.22;0.70;;;;;;;;;;5074933;28;20036;-76
2024/01/02 06:04:38;;;;;;;0.88;0.70;;;;;;;;;;5060024;28;20055;-77
2024/01/02 06:07:03;;;;;;;1.75;0.80;;;;;;;;;;5072266;28;20036;-77
2024/01/02 06:09:29;;;;;;;1.50;0.70;;;;;;;;;;5051707;28;20031;-78
2024/01/02 06:11:54;;;;;;;1.70;0.95;;;;;;;;;;5048697;28;20028;-77
2024/01/02 06:14:20;;;;;;;1.23;0.80;;;;;;;;;;5046841;28;20028;-77
2024/01/02 06:16:45;;;;;;;1.55;1.00;;;;;;;;;;5064819;28;20471;-77
2024/01/02 06:19:11;;;;;;;2.97;0.98;;;;;;;;;;5046100;28;20120;-77
2024/01/02 06:21:37;;;;;;;1.08;0.77;;;;;;;;;;5064910;28;20099;-77
2024/01/02 06:24:02;;;;;;;0.98;0.73;;;;;;;;;;5065421;28;20512;-77
2024/01/02 06:26:28;;;;;;;0.70;0.60;;;;;;;;;;5046664;28;20491;-76
2024/01/02 06:28:53;;;;;;;0.95;0.77;;;;;;;;;;5044526;28;20122;-77
2024/01/02 06:31:22;;;;;;;0.90;0.70;;;;;;;;;;5064390;28;20490;-77
2024/01/02 06:33:47;;;;;;;0.60;0.60;;;;;;;;;;5046395;28;20029;-77
2024/01/02 06:36:13;;;;;;;1.75;0.75;;;;;;;;;;5065026;28;20032;-77
2024/01/02 06:38:38;;;;;;;1.40;0.90;;;;;;;;;;5063628;28;20624;-76
2024/01/02 06:41:04;;;;;;;1.58;0.90;;;;;;;;;;5064280;28;20111;-77
2024/01/02 06:43:29;;;;;;;2.95;0.90;;;;;;;;;;5045488;28;20036;-77
2024/01/02 06:45:55;;;;;;;1.10;0.68;;;;;;;;;;5046779;28;20638;-78
2024/01/02 06:48:20;;;;;;;0.55;0.52;;;;;;;;;;5028573;28;20041;-78
2024/01/02 06:50:46;;;;;;;2.83;0.80;;;;;;;;;;5044911;28;20040;-78
2024/01/02 06:53:12;;;;;;;2.55;0.70;;;;;;;;;;5044646;28;20029;-78
2024/01/02 06:55:37;;;;;;;1.33;0.90;;;;;;;;;;5044652;28;20479;-78
2024/01/02 06:58:03;;;;;;;1.08;0.70;;;;;;;;;;5022465;28;20114;-77
2024/01/02 07:00:28;;;;;;;1.08;0.85;;;;;;;;;;5025537;28;20040;-78
2024/01/02 07:02:54;;;;;;;0.80;0.70;;;;;;;;;;5043360;28;20032;-77
2024/01/02 07:05:19;;;;;;;3.17;1.73;;;;;;;;;;5044248;28;20033;-77
2024/01/02 07:07:46;;;;;;;1.05;0.80;;;;;;;;;;5026567;28;20041;-77
2024/01/02 07:10:11;;;;;;;1.40;0.95;;;;;;;;;;5044835;28;20203;-78
2024/01/02 07:12:36;;;;;;;2.25;1.15;;;;;;;;;;5044779;28;20409;-78
2024/01/02 07:15:03;;;;;;;1.35;0.73;;;;;;;;;;5027479;28;20063;-78
2024/01/02 07:17:28;;;;;;;1.25;0.63;;;;;;;;;;5045397;28;20043;-78
2024/01/02 07:19:53;;;;;;;0.80;0.73;;;;;;;;;;5030865;28;20120;-77
2024/01/02 07:22:19;;;;;;;1.33;0.80;;;;;;;;;;5037990;28;20036;-78
2024/01/02 07:24:44;;;;;;;0.93;0.80;;;;;;;;;;5030163;28;20045;-79
2024/01/02 07:27:10;;;;;;;1.48;0.73;;;;;;;;;;5043276;28;20075;-78
2024/01/02 07:29:35;;;;;;;1.13;0.80;;;;;;;;;;5025657;28;20064;-79
2024/01/02 07:32:00;;;;;;;1.08;0.90;;;;;;;;;;5057733;28;20086;-79
2024/01/02 07:34:26;;;;;;;3.22;1.20;;;;;;;;;;5064110;28;20087;-80
2024/01/02 07:36:51;;;;;;;3.40;1.50;;;;;;;;;;5063761;28;20036;-79
2024/01/02 07:39:17;;;;;;;2.33;1.55;;;;;;;;;;5045335;28;20479;-79
2024/01/02 07:41:43;;;;;;;1.50;1.00;;;;;;;;;;5062376;28;20638;-79
2024/01/02 07:44:08;;;;;;;2.00;1.13;;;;;;;;;;5045240;28;20127;-79
2024/01/02 07:46:33;;;;;;;1.83;1.05;;;;;;;;;;5045326;28;20122;-79
2024/01/02 07:48:59;;;;;;;1.38;0.90;;;;;;;;;;5064257;28;20040;-78
2024/01/02 07:51:24;;;;;;;1.63;0.80;;;;;;;;;;5063012;28;20031;-78
2024/01/02 07:53:50;;;;;;;2.80;1.10;;;;;;;;;;5046477;28;20036;-78
2024/01/02 07:56:19;;;;;;;2.97;1.13;;;;;;;;;;5062853;28;20079;-79
2024/01/02 07:58:46;;;;;;;1.08;0.80;;;;;;;;;;5045100;28;20517;-79
2024/01/02 08:01:12;;;;;;;0.70;0.70;;;;;;;;;;5063840;28;20564;-78
2024/01/02 08:03:37;;;;;;;0.73;0.60;;;;;;;;;;5044521;28;20032;-79
2024/01/02 08:06:03;;;;;;;3.45;0.70;;;;;;;;;;5044465;28;20455;-79
2024/01/02 08:08:28;;;;;;;1.55;1.10;;;;;;;;;;5042551;28;20067;-78
2024/01/02 08:10:53;;;;;;;1.00;0.90;;;;;;;;;;5059735;28;20421;-77
2024/01/02 08:13:19;;;;;;;0.50;0.50;;;;;;;;;;5044246;28;20425;-77
2024/01/02 08:15:44;;;;;;;0.93;0.70;;;;;;;;;;5061483;28;20036;-77
2024/01/02 08:18:09;;;;;;;0.50;0.50;;;;;;;;;;5063198;28;20028;-76
2024/01/02 08:20:35;;;;;;;0.73;0.57;;;;;;;;;;5060020;28;20040;-76
2024/01/02 08:23:00;;;;;;;0.45;0.45;;;;;;;;;;5055731;28;20421;-76
2024/01/02 08:25:26;;;;;;;0.80;0.50;;;;;;;;;;5052164;28;20032;-76
2024/01/02 08:27:51;;;;;;;1.20;1.00;;;;;;;;;;5027642;28;20048;-76
2024/01/02 08:30:18;;;;;;;0.40;0.38;;;;;;;;;;5036460;28;20039;-76
2024/01/02 08:32:44;;;;;;;0.70;0.50;;;;;;;;;;5054076;28;20051;-76
2024/01/02 08:35:10;;;;;;;0.60;0.60;;;;;;;;;;5053874;28;20048;-76
2024/01/02 08:37:36;;;;;;;0.47;0.40;;;;;;;;;;5033508;28;20061;-75
2024/01/02 08:40:01;;;;;;;1.20;0.73;;;;;;;;;;5041416;28;20429;-77
2024/01/02 08:42:26;;;;;;;0.50;0.50;;;;;;;;;;5038464;28;20040;-77
2024/01/02 08:44:52;;;;;;;0.70;0.70;;;;;;;;;;5032859;28;20042;-76
2024/01/02 08:47:17;;;;;;;1.80;0.60;;;;;;;;;;5023413;28;20414;-76
2024/01/02 08:49:42;;;;;;;0.40;0.40;;;;;;;;;;5021319;28;20065;-78
2024/01/02 08:52:08;;;;;;;0.68;0.60;;;;;;;;;;5019974;28;20042;-77
2024/01/02 08:54:33;;;;;;;1.27;0.80;;;;;;;;;;5020490;28;20080;-77
2024/01/02 08:56:58;;;;;;;0.98;0.88;;;;;;;;;;5021332;28;20034;-77
2024/01/02 08:59:24;;;;;;;1.42;0.95;;;;;;;;;;5021514;28;20124;-77
2024/01/02 09:01:52;;;;;;;0.50;0.50;;;;;;;;;;5021799;28;20041;-77
2024/01/02 09:04:18;;;;;;;0.85;0.70;;;;;;;;;;5021756;28;20224;-77
2024/01/02 09:06:45;;;;;;;0.73;0.63;;;;;;;;;;5024189;28;20120;-78
2024/01/02 09:09:10;;;;;;;0.60;0.40;;;;;;;;;;5031992;28;20067;-77
2024/01/02 09:11:37;;;;;;;0.50;0.50;;;;;;;;;;5031251;28;20121;-78
2024/01/02 09:14:02;;;;;;;8.60;1.10;;;;;;;;;;5036256;28;20465;-76
2024/01/02 09:16:32;;;;;;;0.30;0.30;;;;;;;;;;5039431;28;20045;-77
2024/01/02 09:18:57;;;;;;;0.60;0.60;;;;;;;;;;5041319;28;20029;-77
2024/01/02 09:21:23;;;;;;;0.80;0.57;;;;;;;;;;5041287;28;20032;-77
2024/01/02 09:23:48;;;;;;;0.73;0.70;;;;;;;;;;5039878;28;20080;-77
2024/01/02 09:26:19;;;;;;;0.40;0.40;;;;;;;;;;5035718;28;20068;-77
2024/01/02 09:28:45;;;;;;;1.50;1.40;;;;;;;;;;5035530;28;20048;-77
2024/01/02 09:31:10;;;;;;;0.60;0.50;;;;;;;;;;5032585;28;20125;-77
2024/01/02 09:33:38;;;;;;;1.02;0.75;;;;;;;;;;5045863;28;20021;-77
2024/01/02 09:36:04;;;;;;;0.50;0.50;;;;;;;;;;5043848;28;20040;-77
2024/01/02 09:38:30;;;;;;;2.88;1.55;;;;;;;;;;5043332;28;20064;-77
2024/01/02 09:41:08;;;;;;;2.10;0.70;;;;;;;;;;5043075;28;20045;-77
2024/01/02 09:44:06;;;;;;;0.75;0.75;;;;;;;;;;5038368;28;20838;-76
2024/01/02 09:47:09;;;;;;;1.20;1.10;;;;;;;;;;5019809;28;20045;-78
2024/01/02 09:50:09;;;;;;;0.70;0.70;;;;;;;;;;5033599;28;20044;-78
2024/01/02 09:52:49;;;;;;;0.40;0.40;;;;;;;;;;5035909;28;20124;-79
2024/01/02 09:55:33;;;;;;;0.88;0.75;;;;;;;;;;5033890;28;20041;-77
2024/01/02 09:58:10;;;;;;;2.05;0.73;;;;;;;;;;5031483;28;20040;-79
2024/01/02 10:00:45;;;;;;;2.10;1.25;;;;;;;;;;5028132;28;20128;-79
2024/01/02 10:03:43;;;;;;;0.95;0.68;;;;;;;;;;5023992;28;20179;-79
2024/01/02 10:06:34;;;;;;;2.15;0.70;;;;;;;;;;5023796;28;20037;-79
2024/01/02 10:09:15;;;;;;;1.00;0.70;;;;;;;;;;5024364;28;20072;-78
2024/01/02 10:12:13;;;;;;;1.65;1.08;;;;;;;;;;5026392;28;20608;-78
2024/01/02 10:15:07;;;;;;;1.73;1.15;;;;;;;;;;5019435;28;20605;-76
2024/01/02 10:17:57;;;;;;;1.05;0.95;;;;;;;;;;5027078;28;20111;-78
2024/01/02 10:20:32;;;;;;;0.77;0.65;;;;;;;;;;5030368;28;20033;-79
2024/01/02 10:23:09;;;;;;;0.98;0.80;;;;;;;;;;5022631;28;20043;-78
2024/01/02 10:25:36;;;;;;;0.70;0.60;;;;;;;;;;5021695;28;20632;-79
2024/01/02 10:28:14;;;;;;;0.63;0.52;;;;;;;;;;5025974;28;20071;-78
2024/01/02 10:31:14;;;;;;;1.08;0.60;;;;;;;;;;5043060;28;20617;-79
2024/01/02 10:34:21;;;;;;;1.25;0.80;;;;;;;;;;5043675;28;20102;-78
2024/01/02 10:36:52;;;;;;;2.75;0.70;;;;;;;;;;5028874;28;20041;-78
2024/01/02 10:39:47;;;;;;;0.77;0.77;;;;;;;;;;5047581;28;20117;-78
2024/01/02 10:42:55;;;;;;;0.45;0.45;;;;;;;;;;5043249;28;20506;-78
2024/01/02 10:45:27;;;;;;;0.60;0.60;;;;;;;;;;5047979;28;20044;-79
2024/01/02 10:48:14;;;;;;;1.00;0.70;;;;;;;;;;5048153;28;20120;-79
2024/01/02 10:50:55;;;;;;;0.80;0.68;;;;;;;;;;5067704;28;20127;-77
2024/01/02 10:53:34;;;;;;;0.80;0.50;;;;;;;;;;5054222;28;20047;-79
2024/01/02 10:56:19;;;;;;;0.90;0.70;;;;;;;;;;5064804;28;20024;-79
2024/01/02 10:58:58;;;;;;;0.35;0.32;;;;;;;;;;5048741;28;20057;-77
2024/01/02 11:01:26;;;;;;;1.48;0.60;;;;;;;;;;5048144;28;20064;-77
2024/01/02 11:03:58;;;;;;;0.60;0.60;;;;;;;;;;5065105;28;20040;-75
2024/01/02 11:06:36;;;;;;;1.23;0.88;;;;;;;;;;5047963;28;20086;-77
2024/01/02 11:09:11;;;;;;;0.93;0.50;;;;;;;;;;5047751;28;20791;-77
2024/01/02 11:11:40;;;;;;;0.60;0.60;;;;;;;;;;5066020;28;20581;-77
2024/01/02 11:14:13;;;;;;;1.20;0.40;;;;;;;;;;5047948;28;20580;-76
2024/01/02 11:16:42;;;;;;;0.70;0.50;;;;;;;;;;5053516;28;20020;-77
2024/01/02 11:19:13;;;;;;;0.60;0.60;;;;;;;;;;5056505;28;20517;-76
2024/01/02 11:21:47;;;;;;;0.50;0.50;;;;;;;;;;5068819;28;20044;-77
2024/01/02 11:24:16;;;;;;;1.00;0.60;;;;;;;;;;5060242;28;20036;-77
2024/01/02 11:26:44;;;;;;;1.20;0.70;;;;;;;;;;5081769;28;20028;-78
2024/01/02 11:29:23;;;;;;;0.50;0.50;;;;;;;;;;5044618;28;20441;-78
2024/01/02 11:31:51;;;;;;;0.52;0.50;;;;;;;;;;5045199;28;20111;-77
2024/01/02 11:34:37;;;;;;;0.75;0.57;;;;;;;;;;5046126;28;20097;-78
2024/01/02 11:37:15;;;;;;;0.60;0.60;;;;;;;;;;5045610;28;20035;-78
2024/01/02 11:40:08;;;;;;;0.50;0.50;;;;;;;;;;5063716;28;20052;-75
2024/01/02 11:42:47;;;;;;;0.60;0.57;;;;;;;;;;5044726;28;20094;-75
2024/01/02 11:45:16;;;;;;;1.13;0.50;;;;;;;;;;5043609;28;20039;-76
2024/01/02 11:47:48;;;;;;;1.70;0.70;;;;;;;;;;5045448;28;20037;-75
2024/01/02 11:50:15;;;;;;;0.90;0.60;;;;;;;;;;5044873;28;20437;-76
2024/01/02 11:53:02;;;;;;;0.50;0.50;;;;;;;;;;5045546;28;20169;-75
2024/01/02 11:55:33;;;;;;;0.98;0.70;;;;;;;;;;5063152;28;20459;-77
2024/01/02 11:58:11;;;;;;;0.57;0.57;;;;;;;;;;5046338;28;20071;-78
2024/01/02 12:00:41;;;;;;;1.13;0.80;;;;;;;;;;5064155;28;20041;-78
2024/01/02 12:03:37;;;;;;;1.05;0.50;;;;;;;;;;5045558;28;20098;-77
2024/01/02 12:06:16;;;;;;;0.55;0.50;;;;;;;;;;5061313;28;20107;-79
2024/01/02 12:08:49;;;;;;;0.60;0.45;;;;;;;;;;5044306;28;20086;-79
2024/01/02 12:11:19;;;;;;;0.60;0.60;;;;;;;;;;5063121;28;20648;-79
2024/01/02 12:14:03;;;;;;;1.75;0.50;;;;;;;;;;5044861;28;20489;-80
2024/01/02 12:16:33;;;;;;;0.60;0.60;;;;;;;;;;5063491;28;20048;-79
2024/01/02 12:19:03;;;;;;;0.70;0.60;;;;;;;;;;5063111;28;20040;-79
2024/01/02 12:21:31;;;;;;;1.52;0.47;;;;;;;;;;5063659;28;20055;-79
2024/01/02 12:23:57;;;;;;;0.70;0.60;;;;;;;;;;5045200;28;20046;-83
2024/01/02 12:26:26;;;;;;;1.08;0.60;;;;;;;;;;5045017;28;20033;-80
2024/01/02 12:28:53;;;;;;;0.80;0.68;;;;;;;;;;5043238;28;20262;-80
2024/01/02 12:31:21;;;;;;;3.47;1.45;;;;;;;;;;5044476;28;20040;-79
2024/01/02 12:34:09;;;;;;;0.90;0.70;;;;;;;;;;5037839;28;20513;-77
2024/01/02 12:37:17;;;;;;;0.63;0.60;;;;;;;;;;5046314;28;20048;-77
2024/01/02 12:39:43;;;;;;;1.80;0.60;;;;;;;;;;5069264;28;20148;-78
2024/01/02 12:42:16;;;;;;;0.70;0.70;;;;;;;;;;5063847;28;20078;-77
2024/01/02 12:44:46;;;;;;;0.77;0.70;;;;;;;;;;5043027;28;20408;-77
2024/01/02 12:47:16;;;;;;;1.48;0.80;;;;;;;;;;5063524;28;20029;-77
2024/01/02 12:49:54;;;;;;;0.60;0.60;;;;;;;;;;5046187;28;20029;-78
2024/01/02 12:52:25;;;;;;;0.73;0.65;;;;;;;;;;5045319;28;20082;-77
2024/01/02 12:54:54;;;;;;;0.77;0.65;;;;;;;;;;5063510;28;20509;-79
2024/01/02 12:57:20;;;;;;;0.80;0.80;;;;;;;;;;5063698;28;20055;-78
2024/01/02 12:59:45;;;;;;;0.70;0.63;;;;;;;;;;5064059;28;20118;-78
2024/01/02 13:02:11;;;;;;;0.63;0.60;;;;;;;;;;5062135;28;20034;-78
2024/01/02 13:04:37;;;;;;;2.47;0.70;;;;;;;;;;5066780;28;20102;-78
2024/01/02 13:07:04;;;;;;;0.63;0.63;;;;;;;;;;5046725;28;20039;-80
2024/01/02 13:09:30;;;;;;;1.27;0.75;;;;;;;;;;5048797;28;20098;-78
2024/01/02 13:12:03;;;;;;;0.65;0.55;;;;;;;;;;5049539;28;20040;-78
2024/01/02 13:14:29;;;;;;;0.60;0.60;;;;;;;;;;5044475;28;20036;-77
2024/01/02 13:16:55;;;;;;;0.60;0.60;;;;;;;;;;5066727;28;20082;-77
2024/01/02 13:19:21;;;;;;;0.60;0.50;;;;;;;;;;5048045;28;20576;-78
2024/01/02 13:21:52;;;;;;;1.75;0.68;;;;;;;;;;5067325;28;20039;-78
2024/01/02 13:24:17;;;;;;;0.68;0.68;;;;;;;;;;5049151;28;20040;-78
2024/01/02 13:26:45;;;;;;;0.43;0.38;;;;;;;;;;5065926;28;20480;-77
2024/01/02 13:29:15;;;;;;;0.50;0.50;;;;;;;;;;5066403;28;20032;-77
2024/01/02 13:31:42;;;;;;;2.67;0.50;;;;;;;;;;5068280;28;20546;-77
2024/01/02 13:34:08;;;;;;;0.50;0.50;;;;;;;;;;5067613;28;20071;-77
2024/01/02 13:36:45;;;;;;;0.30;0.30;;;;;;;;;;5066831;28;20052;-77
2024/01/02 13:39:36;;;;;;;0.40;0.40;;;;;;;;;;5047656;28;20123;-77
2024/01/02 13:42:04;;;;;;;0.35;0.35;;;;;;;;;;5045711;28;20044;-77
2024/01/02 13:44:35;;;;;;;0.50;0.50;;;;;;;;;;5028838;28;20045;-77
2024/01/02 13:47:01;;;;;;;0.73;0.73;;;;;;;;;;5027901;28;20126;-76
2024/01/02 13:49:47;;;;;;;0.52;0.52;;;;;;;;;;5029028;28;20417;-75
2024/01/02 13:52:33;;;;;;;0.98;0.80;;;;;;;;;;5050168;28;20090;-76
2024/01/02 13:54:59;;;;;;;0.70;0.70;;;;;;;;;;5040908;28;20041;-76
2024/01/02 13:57:33;;;;;;;0.68;0.63;;;;;;;;;;5063685;28;20049;-76
2024/01/02 14:00:14;;;;;;;0.68;0.50;;;;;;;;;;5032441;28;20040;-74
2024/01/02 14:03:00;;;;;;;0.65;0.65;;;;;;;;;;5026722;28;20124;-76
2024/01/02 14:05:27;;;;;;;1.77;0.70;;;;;;;;;;5047113;28;20120;-76
2024/01/02 14:07:54;;;;;;;1.75;0.70;;;;;;;;;;5047180;28;20037;-76
2024/01/02 14:10:26;;;;;;;0.60;0.60;;;;;;;;;;5047449;28;20037;-77
2024/01/02 14:12:52;;;;;;;2.13;0.65;;;;;;;;;;5045754;28;20079;-76
2024/01/02 14:15:20;;;;;;;0.52;0.40;;;;;;;;;;5046220;28;20037;-76
2024/01/02 14:17:48;;;;;;;1.88;0.70;;;;;;;;;;5028406;28;20037;-76
2024/01/02 14:20:21;;;;;;;0.55;0.50;;;;;;;;;;5027920;28;20040;-76
2024/01/02 14:23:01;;;;;;;0.60;0.60;;;;;;;;;;5055219;28;20021;-74
2024/01/02 14:25:32;;;;;;;0.73;0.73;;;;;;;;;;5039629;28;20175;-75
2024/01/02 14:28:11;;;;;;;0.55;0.50;;;;;;;;;;5053910;28;20051;-75
2024/01/02 14:30:38;;;;;;;1.27;0.60;;;;;;;;;;5042942;28;20039;-75
2024/01/02 14:33:38;;;;;;;0.55;0.43;;;;;;;;;;5047137;28;20052;-75
2024/01/02 14:36:17;;;;;;;0.70;0.45;;;;;;;;;;5046038;28;20888;-75
2024/01/02 14:39:20;;;;;;;0.60;0.60;;;;;;;;;;5028805;28;20041;-75
2024/01/02 14:42:23;;;;;;;0.50;0.40;;;;;;;;;;5027855;28;20056;-75
2024/01/02 14:44:48;;;;;;;0.60;0.60;;;;;;;;;;5045991;28;20037;-75
2024/01/02 14:47:14;;;;;;;1.80;0.90;;;;;;;;;;5045623;28;20029;-75
2024/01/02 14:49:47;;;;;;;1.13;0.75;;;;;;;;;;5028826;28;20024;-75
2024/01/02 14:52:33;;;;;;;1.20;0.75;;;;;;;;;;5027608;28;20064;-76
2024/01/02 14:55:20;;;;;;;0.65;0.65;;;;;;;;;;5046379;28;20036;-75